Aeroporto :
LOGIN :

Iscrizione | Disclaimer

   EN    FR    IT 

 










Sommario :    VFR   VFR Marginale   IFR   IFR Intensivo   IFR Molto Intensivo
Visibilità : 
Base nubi : 
>= 8 km
>= 3000ft
5 / 8 km
1000 / 3000 ft
1500m / 5 km
500 / 1000 ft
800 / 1500m
200 / 500 ft
< 800m
< 200 ft
Simboli :   Temporali  Nebbia  Neve Forte  Precipitazioni Forti  Vento > 20 kt
SIGMETs :   Varie  Temporali  Ghiacco  Turbolenza  Onda orograficha  Ceneri Vulcaniche







- Altitudine del aeroporto : 336 ft
- Codice IATA : GCI
- Carte del aeroporto


EGJB - Guernsey

ULTIMO METAR :
  • 200750Z 33005KT 9999 FEW006 13/11 Q1013

METARs OBSOLETI :
  • 200720Z 31005KT 9999 FEW005 12/11 Q1013
  • 200650Z 32005KT 9999 FEW004 12/11 Q1013
  • 200620Z 34005KT 9999 FEW004 11/11 Q1012
  • 200550Z 32004KT 9999 FEW005 11/11 Q1012
  • 200520Z 32005KT 9999 FEW005 11/11 Q1012

TAF TAF EGJB
Valido dal 20 a 06 ore il 20 a 15 ore UTC


200455Z 2006/2015 32006KT 9999 FEW015
PROB40
TEMPO 2006/2010 3000 SHRA BR BKN004
ATIS : +44 1481 238 957
Nessun NOTAM noto per questo aeroporto.



MetMap, La meteo Aeronautica in un colpo d'occhio ! - Copyright ORBIFLY Dicembre 2007 - Disclaimer

ORBIFLY MET'MAP TEAM :

Programmazione e sviluppo : Alexandra Zaïnal
Concezione e sviluppo : Baudouin d'Aumeries
Co-Programmazione e sviluppo : Marc-Olivier Méhu
Supporto tecnico e logistico : Manuel Goepfert
Aiuto per la traduzione : Arnaldo La Scala

Contatto : metmap@orbifly.com




FONTI E CREDITI :

   NOAA